Time;durP1;ratioP1;P1;durP2;ratioP2;P2;SDS_P1;SDS_P2;PMS_P1;PMS_P2;Temp;Humidity;BMP_temperature;BMP_pressure;BME280_temperature;BME280_humidity;BME280_pressure;Samples;Min_cycle;Max_cycle;Signal;HPM_P1;HPM_P2
2023/09/10 15:43:14;;;;;;;1999.90;999.90;;;34.40;54.60;;;;;;5177598;27;20325;-79
2023/09/10 15:45:39;;;;;;;1999.90;999.90;;;33.70;56.40;;;;;;5178144;27;20174;-74
2023/09/10 15:48:05;;;;;;;1999.90;999.90;;;32.50;55.40;;;;;;5159916;27;20506;-77
2023/09/10 15:50:34;;;;;;;1999.90;999.90;;;33.30;56.10;;;;;;5180556;27;20043;-79
2023/09/10 15:53:00;;;;;;;1999.90;999.90;;;32.90;61.30;;;;;;5159573;27;20043;-80
2023/09/10 15:55:25;;;;;;;1999.90;999.90;;;32.60;61.00;;;;;;5157919;27;20027;-77
2023/09/10 15:57:51;;;;;;;1999.90;999.90;;;32.40;62.40;;;;;;5176072;27;20372;-78
2023/09/10 16:00:17;;;;;;;1999.90;999.90;;;32.10;62.30;;;;;;5175067;27;20039;-77
2023/09/10 16:02:46;;;;;;;1999.90;999.90;;;32.10;58.80;;;;;;5174973;27;20552;-79
2023/09/10 16:05:12;;;;;;;1999.90;999.90;;;31.90;62.60;;;;;;5174185;27;20081;-79
2023/09/10 16:07:38;;;;;;;1999.90;999.90;;;31.60;61.10;;;;;;5178069;27;20511;-78
2023/09/10 16:10:04;;;;;;;1999.90;999.90;;;31.30;66.30;;;;;;5173814;27;20123;-80
2023/09/10 16:12:31;;;;;;;1999.90;999.90;;;31.10;63.90;;;;;;5158180;27;20082;-79
2023/09/10 16:14:57;;;;;;;1999.90;999.90;;;31.00;61.00;;;;;;5156307;27;20023;-79
2023/09/10 16:17:22;;;;;;;1999.90;999.90;;;31.10;63.00;;;;;;5171777;27;20031;-78
2023/09/10 16:19:48;;;;;;;1999.90;999.90;;;31.10;68.30;;;;;;5175320;27;20041;-78
2023/09/10 16:22:18;;;;;;;1999.90;999.90;;;30.90;66.20;;;;;;5178028;27;20035;-78
2023/09/10 16:24:44;;;;;;;1999.90;999.90;;;30.70;62.20;;;;;;5163236;27;20027;-79
2023/09/10 16:27:11;;;;;;;1999.90;999.90;;;30.60;62.60;;;;;;5179424;27;20035;-80
2023/09/10 16:29:37;;;;;;;1999.90;999.90;;;30.50;65.60;;;;;;5175021;27;20035;-80
2023/09/10 16:32:03;;;;;;;1999.90;999.90;;;30.10;70.30;;;;;;5158959;27;20035;-79
2023/09/10 16:34:29;;;;;;;1999.90;999.90;;;29.70;70.70;;;;;;5179852;27;20034;-78
2023/09/10 16:36:54;;;;;;;1999.90;999.90;;;29.30;72.80;;;;;;5184276;27;20031;-77
2023/09/10 16:39:20;;;;;;;1999.90;999.90;;;29.00;73.80;;;;;;5184547;27;20027;-77
2023/09/10 16:41:47;;;;;;;1999.90;999.90;;;28.60;76.30;;;;;;5172901;27;20046;-77
2023/09/10 16:44:13;;;;;;;1999.90;999.90;;;28.30;76.90;;;;;;5173527;27;20027;-78
2023/09/10 16:46:39;;;;;;;1999.90;999.90;;;28.00;77.90;;;;;;5174821;27;20027;-80
2023/09/10 16:49:05;;;;;;;1999.90;999.90;;;27.70;80.30;;;;;;5157236;27;20031;-79
2023/09/10 16:51:32;;;;;;;1999.90;999.90;;;27.40;81.00;;;;;;5159807;27;20047;-79
2023/09/10 16:53:57;;;;;;;1999.90;999.90;;;27.20;81.50;;;;;;5154676;27;20028;-79
2023/09/10 16:56:23;;;;;;;1999.90;999.90;;;26.90;82.70;;;;;;5144348;27;20060;-79
2023/09/10 16:58:49;;;;;;;1999.90;999.90;;;26.70;83.00;;;;;;5160454;27;20090;-77
2023/09/10 17:01:18;;;;;;;1999.90;999.90;;;26.40;84.40;;;;;;5161168;27;20035;-79
2023/09/10 17:03:45;;;;;;;1999.90;999.90;;;26.30;86.70;;;;;;5145416;27;20057;-79
2023/09/10 17:06:11;;;;;;;1999.90;999.90;;;26.10;86.30;;;;;;5156019;27;20027;-79
2023/09/10 17:08:36;;;;;;;1999.90;999.90;;;25.80;86.40;;;;;;5141305;27;20027;-78
2023/09/10 17:11:02;;;;;;;1999.90;999.90;;;25.70;86.20;;;;;;5159909;27;20035;-78
2023/09/10 17:13:28;;;;;;;1999.90;999.90;;;25.50;86.50;;;;;;5159138;27;20053;-78
2023/09/10 17:16:01;;;;;;;1999.90;999.90;;;25.30;88.50;;;;;;5140262;27;20056;-79
2023/09/10 17:18:26;;;;;;;1999.90;999.90;;;25.10;89.10;;;;;;5160712;27;20506;-81
2023/09/10 17:20:52;;;;;;;1999.90;999.90;;;25.00;90.20;;;;;;5140584;27;20042;-79
2023/09/10 17:23:17;;;;;;;1999.90;999.90;;;24.70;90.60;;;;;;5159130;27;20035;-79
2023/09/10 17:25:43;;;;;;;1999.90;999.90;;;24.50;90.80;;;;;;5159036;27;20030;-80
2023/09/10 17:28:09;;;;;;;1999.90;999.90;;;24.40;90.70;;;;;;5159600;27;20491;-78
2023/09/10 17:30:35;;;;;;;1999.90;999.90;;;24.20;90.90;;;;;;5140313;27;20160;-78
2023/09/10 17:33:02;;;;;;;1999.90;999.90;;;24.20;91.70;;;;;;5158769;27;20511;-79
2023/09/10 17:35:28;;;;;;;1999.90;999.90;;;24.00;92.00;;;;;;5161870;27;20086;-79
2023/09/10 17:37:54;;;;;;;1999.90;999.90;;;23.90;92.20;;;;;;5142591;27;20066;-81
2023/09/10 17:40:21;;;;;;;1999.90;999.90;;;23.70;92.60;;;;;;5160676;27;20031;-78
2023/09/10 17:42:47;;;;;;;1999.90;999.90;;;23.50;93.20;;;;;;5157845;27;20118;-78
2023/09/10 17:45:13;;;;;;;1999.90;999.90;;;23.30;94.40;;;;;;5159933;27;20111;-78
2023/09/10 17:47:39;;;;;;;1999.90;999.90;;;23.30;94.00;;;;;;5158098;27;20100;-77
2023/09/10 17:50:05;;;;;;;1999.90;999.90;;;23.10;94.00;;;;;;5160375;27;20019;-78
2023/09/10 17:52:31;;;;;;;1999.90;999.90;;;23.00;94.90;;;;;;5144616;27;20039;-78
2023/09/10 17:54:57;;;;;;;1999.90;999.90;;;22.80;95.10;;;;;;5161326;27;20036;-78
2023/09/10 17:57:23;;;;;;;1999.90;999.90;;;22.60;95.40;;;;;;5140045;27;20552;-77
2023/09/10 17:59:49;;;;;;;1999.90;999.90;;;22.50;96.80;;;;;;5158410;27;20076;-78
2023/09/10 18:02:14;;;;;;;1999.90;999.90;;;22.50;97.90;;;;;;5157638;27;20059;-78
2023/09/10 18:04:40;;;;;;;1999.90;999.90;;;22.40;98.80;;;;;;5156267;27;20027;-77
2023/09/10 18:07:06;;;;;;;1999.90;999.90;;;22.40;99.20;;;;;;5138390;27;20039;-77
2023/09/10 18:09:32;;;;;;;1999.90;999.90;;;22.30;99.70;;;;;;5158338;27;20486;-77
2023/09/10 18:11:57;;;;;;;1999.90;999.90;;;22.20;99.90;;;;;;5157450;27;20106;-77
2023/09/10 18:14:23;;;;;;;1999.90;999.90;;;22.20;99.90;;;;;;5158210;27;20396;-77
2023/09/10 18:16:49;;;;;;;1999.90;999.90;;;22.10;99.90;;;;;;5157378;27;20035;-78
2023/09/10 18:19:14;;;;;;;1999.90;999.90;;;22.00;99.90;;;;;;5158094;27;20106;-77
2023/09/10 18:21:40;;;;;;;1999.90;999.90;;;21.80;99.90;;;;;;5158231;27;20034;-77
2023/09/10 18:24:05;;;;;;;1999.90;999.90;;;21.70;99.90;;;;;;5139722;27;20023;-78
2023/09/10 18:26:31;;;;;;;1999.90;999.90;;;21.50;99.90;;;;;;5157889;27;20032;-77
2023/09/10 18:28:57;;;;;;;1999.90;999.90;;;21.50;99.90;;;;;;5140530;27;20023;-78
2023/09/10 18:31:22;;;;;;;1999.90;999.90;;;21.40;99.90;;;;;;5138742;27;20031;-77
2023/09/10 18:33:48;;;;;;;1999.90;999.90;;;21.20;99.90;;;;;;5157205;27;20104;-77
2023/09/10 18:36:14;;;;;;;1999.90;999.90;;;21.10;99.90;;;;;;5135952;27;20035;-77
2023/09/10 18:38:52;;;;;;;1999.90;999.90;;;21.00;99.90;;;;;;5159597;27;20114;-77
2023/09/10 18:41:18;;;;;;;1999.90;999.90;;;20.90;99.90;;;;;;5159166;27;20514;-77
2023/09/10 18:43:43;;;;;;;1999.90;999.90;;;20.80;99.90;;;;;;5136096;27;20505;-77
2023/09/10 18:46:09;;;;;;;1999.90;999.90;;;20.80;99.90;;;;;;5118244;27;20040;-77
2023/09/10 18:48:35;;;;;;;1999.90;999.90;;;20.70;99.90;;;;;;5137060;27;20072;-77
2023/09/10 18:51:04;;;;;;;1999.90;999.90;;;20.60;99.90;;;;;;5130089;27;20127;-77
2023/09/10 18:53:30;;;;;;;1999.90;999.90;;;20.50;99.90;;;;;;5159419;27;20031;-77
2023/09/10 18:55:57;;;;;;;1999.90;999.90;;;20.50;99.90;;;;;;5159437;27;20115;-77
2023/09/10 18:58:23;;;;;;;1999.90;999.90;;;20.40;99.90;;;;;;5162667;27;20449;-77
2023/09/10 19:00:56;;;;;;;1999.90;999.90;;;20.20;99.90;;;;;;5163701;27;20039;-77
2023/09/10 19:03:22;;;;;;;1999.90;999.90;;;20.10;99.90;;;;;;5159783;27;20025;-77
2023/09/10 19:05:48;;;;;;;1999.90;999.90;;;20.00;99.90;;;;;;5161033;27;20389;-77
2023/09/10 19:08:13;;;;;;;1999.90;999.90;;;20.00;99.90;;;;;;5165045;27;20030;-77
2023/09/10 19:10:39;;;;;;;1999.90;999.90;;;20.00;99.90;;;;;;5142462;27;20088;-77
2023/09/10 19:13:05;;;;;;;1999.90;999.90;;;20.00;99.90;;;;;;5140742;27;20399;-78
2023/09/10 19:15:30;;;;;;;1999.90;999.90;;;20.00;99.90;;;;;;5176482;27;20433;-77
2023/09/10 19:17:56;;;;;;;1999.90;999.90;;;19.80;99.90;;;;;;5177356;27;20542;-77
2023/09/10 19:20:21;;;;;;;1999.90;999.90;;;19.80;99.90;;;;;;5170447;27;20055;-77
2023/09/10 19:22:47;;;;;;;1999.90;999.90;;;19.70;99.90;;;;;;5138989;27;20039;-77
2023/09/10 19:25:13;;;;;;;1999.90;999.90;;;19.60;99.90;;;;;;5139229;27;20126;-77
2023/09/10 19:27:38;;;;;;;1999.90;999.90;;;19.50;99.90;;;;;;5156326;27;20376;-77
2023/09/10 19:30:05;;;;;;;1999.90;999.90;;;19.30;99.90;;;;;;5138416;27;20034;-77
2023/09/10 19:32:30;;;;;;;1999.90;999.90;;;19.40;99.90;;;;;;5138485;27;20042;-78
2023/09/10 19:34:57;;;;;;;1999.90;999.90;;;19.40;99.90;;;;;;5174968;27;20035;-77
2023/09/10 19:37:22;;;;;;;1999.90;999.90;;;19.30;99.90;;;;;;5164929;27;20039;-76
2023/09/10 19:39:48;;;;;;;1999.90;999.90;;;19.40;99.90;;;;;;5156550;27;20027;-77
2023/09/10 19:42:14;;;;;;;1999.90;999.90;;;19.40;99.90;;;;;;5137585;27;20190;-77
2023/09/10 19:44:39;;;;;;;1999.90;999.90;;;19.50;99.90;;;;;;5137497;27;20035;-79
2023/09/10 19:47:05;;;;;;;1999.90;999.90;;;19.30;99.90;;;;;;5137009;27;20031;-77
2023/09/10 19:49:32;;;;;;;1999.90;999.90;;;19.30;99.90;;;;;;5156696;27;20027;-77
2023/09/10 19:51:58;;;;;;;1999.90;999.90;;;19.20;99.90;;;;;;5156982;27;20509;-80
2023/09/10 19:54:24;;;;;;;1999.90;999.90;;;19.20;99.90;;;;;;5137555;27;20030;-76
2023/09/10 19:56:50;;;;;;;1999.90;999.90;;;19.20;99.90;;;;;;5137596;27;20502;-77
2023/09/10 19:59:15;;;;;;;1999.90;999.90;;;19.10;99.90;;;;;;5137619;27;20035;-77
2023/09/10 20:01:43;;;;;;;1999.90;999.90;;;19.00;99.90;;;;;;5156712;27;20034;-77
2023/09/10 20:04:10;;;;;;;1999.90;999.90;;;18.90;99.90;;;;;;5156282;27;20128;-77
2023/09/10 20:06:38;;;;;;;1999.90;999.90;;;18.90;99.90;;;;;;5164044;27;20484;-77
2023/09/10 20:09:04;;;;;;;1999.90;999.90;;;18.90;99.90;;;;;;5158068;27;20039;-76
2023/09/10 20:11:30;;;;;;;1999.90;999.90;;;18.80;99.90;;;;;;5177316;27;20045;-76
2023/09/10 20:13:57;;;;;;;1999.90;999.90;;;18.70;99.90;;;;;;5177029;27;20026;-76
2023/09/10 20:16:22;;;;;;;1999.90;999.90;;;18.60;99.90;;;;;;5175555;27;20403;-77
2023/09/10 20:18:48;;;;;;;1999.90;999.90;;;18.60;99.90;;;;;;5136757;27;20038;-76
2023/09/10 20:21:23;;;;;;;1999.90;999.90;;;18.50;99.90;;;;;;5154472;27;20039;-76
2023/09/10 20:23:48;;;;;;;1999.90;999.90;;;18.40;99.90;;;;;;5156615;27;20106;-76
2023/09/10 20:26:14;;;;;;;1999.90;999.90;;;18.30;99.90;;;;;;5157717;27;20057;-77
2023/09/10 20:28:40;;;;;;;1999.90;999.90;;;18.30;99.90;;;;;;5166662;27;20069;-77
2023/09/10 20:31:05;;;;;;;1999.90;999.90;;;18.30;99.90;;;;;;5146095;27;20067;-77
2023/09/10 20:33:32;;;;;;;1999.90;999.90;;;18.10;99.90;;;;;;5158609;27;20038;-76
2023/09/10 20:35:57;;;;;;;1999.90;999.90;;;18.10;99.90;;;;;;5158969;27;20557;-77
2023/09/10 20:38:23;;;;;;;1999.90;999.90;;;18.10;99.90;;;;;;5156295;27;20039;-76
2023/09/10 20:40:49;;;;;;;1999.90;999.90;;;18.10;99.90;;;;;;5168761;27;20519;-76
2023/09/10 20:43:14;;;;;;;1999.90;999.90;;;18.00;99.90;;;;;;5141435;27;20507;-78
2023/09/10 20:45:40;;;;;;;1999.90;999.90;;;17.90;99.90;;;;;;5162620;27;20031;-77
2023/09/10 20:48:06;;;;;;;1999.90;999.90;;;17.80;99.90;;;;;;5159395;27;20035;-77
2023/09/10 20:50:34;;;;;;;1999.90;999.90;;;17.90;99.90;;;;;;5159131;27;20030;-76
2023/09/10 20:53:01;;;;;;;1999.90;999.90;;;17.80;99.90;;;;;;5158873;27;20047;-76
2023/09/10 20:55:26;;;;;;;1999.90;999.90;;;17.90;99.90;;;;;;5158931;27;20031;-77
2023/09/10 20:57:52;;;;;;;1999.90;999.90;;;17.80;99.90;;;;;;5159169;27;20066;-76
2023/09/10 21:00:17;;;;;;;1999.90;999.90;;;17.90;99.90;;;;;;5159077;27;20484;-76
2023/09/10 21:02:43;;;;;;;1999.90;999.90;;;18.00;99.90;;;;;;5158941;27;20035;-76
2023/09/10 21:05:09;;;;;;;1999.90;999.90;;;18.00;99.90;;;;;;5158947;27;20034;-76
2023/09/10 21:07:34;;;;;;;1999.90;999.90;;;18.00;99.90;;;;;;5158308;27;20027;-76
2023/09/10 21:10:00;;;;;;;1999.90;999.90;;;18.00;99.90;;;;;;5159040;27;20034;-77
2023/09/10 21:12:26;;;;;;;1999.90;999.90;;;17.90;99.90;;;;;;5159176;27;20039;-76
2023/09/10 21:14:52;;;;;;;1999.90;999.90;;;17.80;99.90;;;;;;5158989;27;20441;-76
2023/09/10 21:17:18;;;;;;;1999.90;999.90;;;17.70;99.90;;;;;;5157953;27;20122;-77
2023/09/10 21:19:45;;;;;;;1999.90;999.90;;;17.80;99.90;;;;;;5159060;27;20027;-77
2023/09/10 21:22:11;;;;;;;1999.90;999.90;;;17.80;99.90;;;;;;5158933;27;20043;-77
2023/09/10 21:24:37;;;;;;;1999.90;999.90;;;17.70;99.90;;;;;;5158966;27;20512;-77
2023/09/10 21:27:03;;;;;;;1999.90;999.90;;;17.80;99.90;;;;;;5169519;27;20038;-76
2023/09/10 21:29:29;;;;;;;1999.90;999.90;;;17.80;99.90;;;;;;5154572;27;20108;-76
2023/09/10 21:31:55;;;;;;;1999.90;999.90;;;17.70;99.90;;;;;;5158924;27;20110;-77
2023/09/10 21:34:20;;;;;;;1999.90;999.90;;;17.80;99.90;;;;;;5172099;27;20030;-76
2023/09/10 21:36:46;;;;;;;1999.90;999.90;;;17.60;99.90;;;;;;5151183;22;20053;-75
2023/09/10 21:39:12;;;;;;;1999.90;999.90;;;17.60;99.90;;;;;;5082902;28;20051;-76
2023/09/10 21:41:38;;;;;;;1999.90;999.90;;;17.50;99.90;;;;;;5085056;28;20041;-75
2023/09/10 21:44:04;;;;;;;1999.90;999.90;;;17.50;99.90;;;;;;5074919;28;20037;-75
2023/09/10 21:46:30;;;;;;;1999.90;999.90;;;17.40;99.90;;;;;;5090834;28;20065;-76
2023/09/10 21:48:55;;;;;;;1999.90;999.90;;;17.40;99.90;;;;;;5085149;28;20120;-75
2023/09/10 21:51:22;;;;;;;1999.90;999.90;;;17.40;99.90;;;;;;5080132;28;20045;-75
2023/09/10 21:53:47;;;;;;;1999.90;999.90;;;17.30;99.90;;;;;;5095088;28;20036;-76
2023/09/10 21:56:16;;;;;;;1999.90;999.90;;;17.20;99.90;;;;;;5096355;28;20033;-76
2023/09/10 21:58:51;;;;;;;1999.90;999.90;;;17.10;99.90;;;;;;5096433;28;20032;-75
2023/09/10 22:01:17;;;;;;;1999.90;999.90;;;17.10;99.90;;;;;;5093171;28;20052;-76
2023/09/10 22:03:42;;;;;;;1999.90;999.90;;;17.00;99.90;;;;;;5092744;28;20051;-76
2023/09/10 22:06:09;;;;;;;1999.90;999.90;;;17.00;99.90;;;;;;5094322;28;20032;-75
2023/09/10 22:08:35;;;;;;;1999.90;999.90;;;16.90;99.90;;;;;;5089769;28;20107;-75
2023/09/10 22:11:04;;;;;;;1999.90;999.90;;;17.00;99.90;;;;;;5081793;28;20032;-75
2023/09/10 22:13:33;;;;;;;1999.90;999.90;;;17.00;99.90;;;;;;5094736;28;20114;-75
2023/09/10 22:15:59;;;;;;;1999.90;999.90;;;16.90;99.90;;;;;;5077309;28;20083;-76
2023/09/10 22:18:25;;;;;;;1999.90;999.90;;;17.00;99.90;;;;;;5094764;28;20036;-75
2023/09/10 22:20:53;;;;;;;1999.90;999.90;;;17.00;99.90;;;;;;5096192;28;20028;-75
2023/09/10 22:23:20;;;;;;;1999.90;999.90;;;17.00;99.90;;;;;;5096006;28;20032;-75
2023/09/10 22:25:47;;;;;;;1999.90;999.90;;;17.00;99.90;;;;;;5095662;28;20031;-75
2023/09/10 22:28:12;;;;;;;1999.90;999.90;;;17.10;99.90;;;;;;5096020;28;20082;-75
2023/09/10 22:30:38;;;;;;;1999.90;999.90;;;17.00;99.90;;;;;;5095937;28;20079;-75
2023/09/10 22:33:04;;;;;;;1999.90;999.90;;;16.90;99.90;;;;;;5096134;28;20040;-75
2023/09/10 22:35:29;;;;;;;1999.90;999.90;;;16.80;99.90;;;;;;5096135;28;20044;-76
2023/09/10 22:37:55;;;;;;;1999.90;999.90;;;16.80;99.90;;;;;;5075840;28;20076;-75
2023/09/10 22:40:21;;;;;;;1999.90;999.90;;;16.70;99.90;;;;;;5077206;28;20068;-75
2023/09/10 22:42:46;;;;;;;1999.90;999.90;;;16.80;99.90;;;;;;5075352;28;20514;-76
2023/09/10 22:45:13;;;;;;;1999.90;999.90;;;16.60;99.90;;;;;;5092810;28;20028;-75
2023/09/10 22:47:41;;;;;;;1999.90;999.90;;;16.50;99.90;;;;;;5093974;28;20041;-75
2023/09/10 22:50:07;;;;;;;1999.90;999.90;;;16.50;99.90;;;;;;5095677;28;20119;-75
2023/09/10 22:52:33;;;;;;;1999.90;999.90;;;16.50;99.90;;;;;;5094523;28;20044;-75
2023/09/10 22:54:58;;;;;;;1999.90;999.90;;;16.40;99.90;;;;;;5095334;28;20385;-75
2023/09/10 22:57:24;;;;;;;1999.90;999.90;;;16.40;99.90;;;;;;5094915;28;20497;-75
2023/09/10 22:59:49;;;;;;;1999.90;999.90;;;16.30;99.90;;;;;;5088620;28;20516;-75
2023/09/10 23:02:15;;;;;;;1999.90;999.90;;;16.30;99.90;;;;;;5074996;28;20111;-75
2023/09/10 23:04:41;;;;;;;1999.90;999.90;;;16.20;99.90;;;;;;5074796;28;20033;-75
2023/09/10 23:07:07;;;;;;;1999.90;999.90;;;16.20;99.90;;;;;;5075378;28;20360;-75
2023/09/10 23:09:32;;;;;;;1999.90;999.90;;;16.20;99.90;;;;;;5094022;28;20028;-75
2023/09/10 23:11:58;;;;;;;1999.90;999.90;;;16.30;99.90;;;;;;5077110;28;20095;-75
2023/09/10 23:14:23;;;;;;;1999.90;999.90;;;16.10;99.90;;;;;;5074895;28;20033;-75
2023/09/10 23:16:49;;;;;;;1999.90;999.90;;;16.10;99.90;;;;;;5090081;28;20032;-75
2023/09/10 23:19:14;;;;;;;1999.90;999.90;;;16.10;99.90;;;;;;5076145;28;20043;-75
2023/09/10 23:21:42;;;;;;;1999.90;999.90;;;16.10;99.90;;;;;;5075033;28;20532;-75
2023/09/10 23:24:10;;;;;;;1999.90;999.90;;;16.20;99.90;;;;;;5074970;28;20032;-75
2023/09/10 23:26:36;;;;;;;1999.90;999.90;;;16.20;99.90;;;;;;5093089;28;20098;-75
2023/09/10 23:29:02;;;;;;;1999.90;999.90;;;16.20;99.90;;;;;;5078385;28;20037;-75
2023/09/10 23:31:28;;;;;;;1999.90;999.90;;;16.20;99.90;;;;;;5073397;28;20040;-75
2023/09/10 23:33:53;;;;;;;1999.90;999.90;;;16.10;99.90;;;;;;5074632;28;20025;-75
2023/09/10 23:36:19;;;;;;;1999.90;999.90;;;16.00;99.90;;;;;;5072893;28;20059;-76
2023/09/10 23:38:47;;;;;;;1999.90;999.90;;;16.10;99.90;;;;;;5087656;28;20575;-75
2023/09/10 23:41:13;;;;;;;1999.90;999.90;;;16.10;99.90;;;;;;5074735;28;20029;-75
2023/09/10 23:43:40;;;;;;;1999.90;999.90;;;16.00;99.90;;;;;;5074602;28;20474;-75
2023/09/10 23:46:07;;;;;;;1999.90;999.90;;;15.90;99.90;;;;;;5094430;28;20470;-76
2023/09/10 23:48:32;;;;;;;1999.90;999.90;;;15.80;99.90;;;;;;5095002;28;20039;-75
2023/09/10 23:50:58;;;;;;;1999.90;999.90;;;15.80;99.90;;;;;;5094503;28;20039;-75
2023/09/10 23:53:23;;;;;;;1999.90;999.90;;;15.80;99.90;;;;;;5094910;28;20044;-76
2023/09/10 23:55:49;;;;;;;1999.90;999.90;;;15.70;99.90;;;;;;5094483;28;20033;-75
2023/09/10 23:58:15;;;;;;;1999.90;999.90;;;15.70;99.90;;;;;;5095564;28;20552;-75
